Time;durP1;ratioP1;P1;durP2;ratioP2;P2;SDS_P1;SDS_P2;PMS_P1;PMS_P2;Temp;Humidity;BMP_temperature;BMP_pressure;BME280_temperature;BME280_humidity;BME280_pressure;Samples;Min_cycle;Max_cycle;Signal;HPM_P1;HPM_P2
2022/08/17 00:01:55;;;;;;;5.83;5.43;;;;;;;22.57;65.73;100187.31;5059904;28;20286;-79
2022/08/17 00:04:22;;;;;;;5.20;4.90;;;;;;;22.51;65.70;100180.63;5059631;28;20242;-78
2022/08/17 00:06:49;;;;;;;8.73;5.40;;;;;;;22.49;66.08;100171.06;5059640;28;20229;-79
2022/08/17 00:09:17;;;;;;;5.63;5.23;;;;;;;22.51;66.41;100161.16;5059076;28;20201;-78
2022/08/17 00:11:44;;;;;;;5.40;4.90;;;;;;;22.48;66.28;100159.59;5055757;28;20728;-79
2022/08/17 00:14:14;;;;;;;5.77;5.20;;;;;;;22.50;66.50;100165.63;5058176;28;20217;-79
2022/08/17 00:16:44;;;;;;;5.33;4.97;;;;;;;22.49;67.50;100137.31;5058270;28;20194;-79
2022/08/17 00:19:13;;;;;;;5.60;5.07;;;;;;;22.51;67.29;100135.41;5054550;28;20201;-79
2022/08/17 00:21:43;;;;;;;5.07;4.77;;;;;;;22.49;67.30;100137.31;5058211;28;20220;-79
2022/08/17 00:24:09;;;;;;;5.20;4.90;;;;;;;22.47;67.10;100141.91;5058034;28;20707;-79
2022/08/17 00:26:36;;;;;;;5.30;4.90;;;;;;;22.45;66.67;100146.50;5060475;28;20209;-78
2022/08/17 00:29:03;;;;;;;5.17;4.87;;;;;;;22.42;65.99;100181.31;5061457;28;20211;-79
2022/08/17 00:31:29;;;;;;;5.60;5.10;;;;;;;22.44;66.10;100189.16;5061771;28;20201;-78
2022/08/17 00:33:58;;;;;;;5.10;4.70;;;;;;;22.39;66.54;100190.34;5061255;28;20218;-79
2022/08/17 00:36:25;;;;;;;7.20;5.07;;;;;;;22.40;66.57;100165.47;5061407;28;20213;-79
2022/08/17 00:38:51;;;;;;;5.90;5.40;;;;;;;22.32;66.82;100170.50;5058542;28;20194;-79
2022/08/17 00:41:20;;;;;;;5.50;5.20;;;;;;;22.27;67.45;100148.69;5059130;28;20679;-79
2022/08/17 00:43:50;;;;;;;5.67;5.27;;;;;;;22.17;67.67;100137.84;5058575;28;20252;-78
2022/08/17 00:46:18;;;;;;;5.90;5.40;;;;;;;22.09;67.47;100140.19;5058827;28;20198;-79
2022/08/17 00:48:48;;;;;;;5.57;5.17;;;;;;;22.03;67.53;100130.00;5059081;28;20264;-78
2022/08/17 00:51:23;;;;;;;5.70;5.30;;;;;;;22.00;68.09;100124.91;5056460;28;20745;-79
2022/08/17 00:53:53;;;;;;;5.60;5.13;;;;;;;22.00;68.45;100111.59;5058087;28;20225;-79
2022/08/17 00:56:26;;;;;;;5.27;4.87;;;;;;;21.99;68.17;100107.28;5058350;28;20746;-78
2022/08/17 00:58:55;;;;;;;6.47;5.87;;;;;;;21.94;67.83;100128.00;5055838;28;20201;-79
2022/08/17 01:01:21;;;;;;;5.13;4.80;;;;;;;21.93;67.57;100139.59;5058621;28;20243;-79
2022/08/17 01:03:48;;;;;;;4.77;4.47;;;;;;;21.91;67.08;100155.66;5058872;28;20213;-79
2022/08/17 01:06:17;;;;;;;5.43;5.03;;;;;;;21.88;66.66;100177.13;5058467;28;20284;-79
2022/08/17 01:08:44;;;;;;;5.40;5.00;;;;;;;21.85;66.79;100173.84;5057890;28;20224;-78
2022/08/17 01:11:10;;;;;;;5.47;4.97;;;;;;;21.83;67.05;100171.28;5057934;28;20717;-79
2022/08/17 01:13:40;;;;;;;5.07;4.67;;;;;;;21.79;67.63;100153.88;5057889;28;20225;-79
2022/08/17 01:16:14;;;;;;;5.23;4.80;;;;;;;21.83;68.12;100136.75;5057955;28;20259;-79
2022/08/17 01:18:41;;;;;;;5.37;4.90;;;;;;;21.83;68.22;100136.75;5057948;28;20247;-79
2022/08/17 01:21:16;;;;;;;5.07;4.60;;;;;;;21.78;67.99;100131.78;5057226;28;20229;-79
2022/08/17 01:23:44;;;;;;;5.57;5.10;;;;;;;21.75;67.80;100142.59;5055570;28;20220;-79
2022/08/17 01:26:10;;;;;;;4.93;4.53;;;;;;;21.75;67.31;100153.22;5057924;28;20566;-79
2022/08/17 01:28:38;;;;;;;5.00;4.70;;;;;;;21.75;66.50;100177.13;5056988;28;20209;-79
2022/08/17 01:31:06;;;;;;;8.67;5.20;;;;;;;21.79;65.65;100215.81;5049565;28;20202;-79
2022/08/17 01:33:33;;;;;;;5.67;5.37;;;;;;;21.73;66.22;100207.44;5037481;28;20234;-79
2022/08/17 01:36:00;;;;;;;4.87;4.53;;;;;;;21.76;66.26;100204.56;5037665;28;20206;-79
2022/08/17 01:38:30;;;;;;;6.20;5.80;;;;;;;21.79;66.12;100202.53;5038143;28;20202;-79
2022/08/17 01:41:00;;;;;;;6.73;6.10;;;;;;;21.83;65.58;100223.59;5038035;28;20222;-79
2022/08/17 01:43:32;;;;;;;5.60;5.20;;;;;;;21.83;66.53;100212.97;5037839;28;20230;-79
2022/08/17 01:46:01;;;;;;;5.07;4.77;;;;;;;21.72;67.40;100173.84;5037500;28;20206;-80
2022/08/17 01:48:31;;;;;;;5.53;5.13;;;;;;;21.67;67.64;100170.69;5039029;28;20241;-79
2022/08/17 01:50:57;;;;;;;5.23;4.93;;;;;;;21.62;67.44;100163.00;5057317;28;20198;-79
2022/08/17 01:53:28;;;;;;;6.17;4.93;;;;;;;21.59;67.54;100163.25;5057425;28;20243;-79
2022/08/17 01:56:00;;;;;;;6.87;5.87;;;;;;;21.54;66.86;100187.44;5057090;28;20229;-78
2022/08/17 01:58:26;;;;;;;5.50;5.20;;;;;;;21.48;67.22;100200.31;5057511;28;20733;-79
2022/08/17 02:00:54;;;;;;;6.17;5.63;;;;;;;21.34;67.22;100187.94;5057787;28;20267;-78
2022/08/17 02:03:23;;;;;;;5.93;5.03;;;;;;;21.30;68.30;100165.19;5057107;28;20715;-79
2022/08/17 02:05:52;;;;;;;5.50;5.10;;;;;;;21.17;68.32;100152.75;5057347;28;20205;-79
2022/08/17 02:08:20;;;;;;;5.33;4.87;;;;;;;21.13;68.26;100153.06;5057225;28;20208;-79
2022/08/17 02:10:47;;;;;;;5.87;5.43;;;;;;;21.14;68.63;100137.03;5056052;28;20202;-79
2022/08/17 02:13:16;;;;;;;5.80;5.40;;;;;;;21.16;68.66;100132.47;5057323;28;20267;-79
2022/08/17 02:15:43;;;;;;;6.00;5.50;;;;;;;21.15;69.08;100135.22;5056958;28;20670;-79
2022/08/17 02:18:10;;;;;;;5.93;5.53;;;;;;;21.09;68.92;100135.63;5057811;28;20726;-79
2022/08/17 02:20:37;;;;;;;6.33;5.90;;;;;;;20.98;69.18;100134.56;5057273;28;20805;-79
2022/08/17 02:23:07;;;;;;;6.50;6.10;;;;;;;20.91;69.77;100105.88;5057094;28;20225;-79
2022/08/17 02:25:35;;;;;;;6.00;5.50;;;;;;;20.89;70.31;100090.09;5056801;28;20219;-79
2022/08/17 02:28:02;;;;;;;5.70;5.40;;;;;;;20.81;70.25;100079.13;5057635;28;20271;-79
2022/08/17 02:30:30;;;;;;;5.93;5.53;;;;;;;20.77;70.89;100069.69;5057444;28;20270;-79
2022/08/17 02:32:56;;;;;;;5.93;5.43;;;;;;;20.76;70.90;100060.88;5056736;28;20225;-79
2022/08/17 02:35:23;;;;;;;5.53;5.10;;;;;;;20.68;71.06;100060.56;5057216;28;20217;-79
2022/08/17 02:37:50;;;;;;;6.07;5.67;;;;;;;20.63;70.86;100060.88;5056725;28;20212;-79
2022/08/17 02:40:17;;;;;;;6.13;5.63;;;;;;;20.62;71.14;100045.91;5056300;28;20271;-79
2022/08/17 02:42:45;;;;;;;5.73;5.43;;;;;;;20.62;70.23;100077.72;5056804;28;20232;-79
2022/08/17 02:45:14;;;;;;;5.80;5.40;;;;;;;20.58;70.95;100072.69;5056710;28;20198;-79
2022/08/17 02:47:43;;;;;;;5.33;5.03;;;;;;;20.52;71.47;100051.91;5057190;28;20252;-79
2022/08/17 02:50:13;;;;;;;6.07;5.57;;;;;;;20.49;71.44;100044.13;5056316;28;20690;-79
2022/08/17 02:52:41;;;;;;;6.17;5.63;;;;;;;20.42;71.37;100056.97;5056939;28;20221;-79
2022/08/17 02:55:11;;;;;;;5.67;5.20;;;;;;;20.42;71.09;100059.59;5057150;28;20208;-80
2022/08/17 02:57:38;;;;;;;7.33;5.60;;;;;;;20.46;71.45;100055.81;5057732;28;20232;-79
2022/08/17 03:00:07;;;;;;;5.23;4.90;;;;;;;20.43;72.05;100038.31;5056979;28;20703;-79
2022/08/17 03:02:37;;;;;;;5.57;5.07;;;;;;;20.40;72.08;100037.66;5056658;28;20715;-79
2022/08/17 03:05:06;;;;;;;5.63;5.23;;;;;;;20.27;71.51;100064.09;5061949;28;20292;-77
2022/08/17 03:07:32;;;;;;;7.70;5.80;;;;;;;20.28;71.80;100046.38;5062084;28;20271;-78
2022/08/17 03:09:59;;;;;;;5.80;5.27;;;;;;;20.32;72.03;100038.16;5061185;28;20209;-78
2022/08/17 03:12:28;;;;;;;5.93;5.57;;;;;;;20.33;71.63;100061.03;5056275;28;20299;-79
2022/08/17 03:14:55;;;;;;;7.10;6.27;;;;;;;20.35;71.20;100072.41;5055841;28;20331;-80
2022/08/17 03:17:21;;;;;;;6.43;6.03;;;;;;;20.38;70.74;100087.28;5056128;28;20231;-79
2022/08/17 03:19:47;;;;;;;6.87;6.40;;;;;;;20.39;70.55;100097.75;5056931;28;20231;-79
2022/08/17 03:22:15;;;;;;;6.60;6.20;;;;;;;20.34;70.97;100094.56;5056749;28;20224;-79
2022/08/17 03:24:42;;;;;;;6.60;6.10;;;;;;;20.34;71.09;100094.56;5060826;28;20212;-79
2022/08/17 03:27:08;;;;;;;6.50;6.10;;;;;;;20.33;71.10;100089.38;5060264;28;20213;-77
2022/08/17 03:29:34;;;;;;;7.33;6.67;;;;;;;20.29;70.55;100101.97;5060080;28;20259;-79
2022/08/17 03:32:11;;;;;;;6.83;6.40;;;;;;;20.28;69.74;100123.25;5060592;28;20618;-79
2022/08/17 03:34:37;;;;;;;6.20;5.80;;;;;;;20.30;69.49;100145.25;5060720;28;20282;-79
2022/08/17 03:37:04;;;;;;;6.70;6.10;;;;;;;20.28;70.00;100139.16;5060591;28;20213;-79
2022/08/17 03:39:31;;;;;;;6.07;5.67;;;;;;;20.24;70.13;100130.59;5060802;28;20213;-79
2022/08/17 03:42:02;;;;;;;6.37;5.90;;;;;;;20.16;70.78;100106.38;5060014;28;20225;-79
2022/08/17 03:44:29;;;;;;;6.83;6.40;;;;;;;20.09;71.26;100083.84;5059894;28;20240;-79
2022/08/17 03:57:53;;;;;;;6.13;5.73;;;;;;;19.83;71.22;100084.56;5059624;28;20324;-79
2022/08/17 04:00:19;;;;;;;6.67;6.13;;;;;;;19.88;71.73;100073.69;5059826;28;20209;-79
2022/08/17 04:02:46;;;;;;;6.47;5.97;;;;;;;19.90;71.65;100073.56;5059508;28;20291;-79
2022/08/17 04:05:13;;;;;;;6.10;5.60;;;;;;;19.77;72.36;100055.81;5060230;28;20208;-78
2022/08/17 04:07:40;;;;;;;6.77;6.27;;;;;;;19.70;72.37;100053.63;5059631;28;20709;-78
2022/08/17 04:10:09;;;;;;;7.00;6.43;;;;;;;19.68;72.59;100044.91;5059921;28;20251;-79
2022/08/17 04:12:44;;;;;;;6.40;6.00;;;;;;;19.61;73.31;100031.22;5059010;28;20217;-79
2022/08/17 04:15:12;;;;;;;6.57;6.07;;;;;;;19.64;73.01;100028.38;5059511;28;20209;-79
2022/08/17 04:17:38;;;;;;;6.33;5.80;;;;;;;19.65;73.77;100015.03;5059555;28;20205;-78
2022/08/17 04:20:05;;;;;;;6.60;6.03;;;;;;;19.63;74.56;99986.97;5059340;28;20208;-79
2022/08/17 04:22:32;;;;;;;5.87;5.47;;;;;;;19.70;74.40;99993.59;5058854;28;20235;-79
2022/08/17 04:24:59;;;;;;;6.30;5.90;;;;;;;19.70;73.92;100006.81;5059203;28;20213;-79
2022/08/17 04:27:26;;;;;;;6.20;5.80;;;;;;;19.69;74.09;100010.41;5059657;28;20217;-79
2022/08/17 04:29:53;;;;;;;6.67;6.13;;;;;;;19.74;73.70;100020.72;5059529;28;20740;-79
2022/08/17 04:32:20;;;;;;;6.30;5.77;;;;;;;19.69;73.73;100022.81;5059132;28;20201;-79
2022/08/17 04:34:46;;;;;;;6.33;5.83;;;;;;;19.68;73.75;100024.56;5059018;28;20204;-79
2022/08/17 04:37:13;;;;;;;6.40;5.90;;;;;;;19.61;74.41;100012.69;5059429;28;20667;-79
2022/08/17 04:42:05;;;;;;;7.27;6.60;;;;;;;19.62;75.14;99990.56;5061119;28;20557;-78
2022/08/17 04:42:26;;;;;;;7.67;6.13;;;;;;;19.59;75.25;99988.13;5060735;28;20790;-79
2022/08/17 04:44:52;;;;;;;6.53;6.13;;;;;;;19.56;75.63;99986.53;5059221;28;20210;-79
2022/08/17 04:47:19;;;;;;;8.03;5.97;;;;;;;19.61;75.81;99976.47;5059606;28;20205;-79
2022/08/17 04:49:45;;;;;;;5.97;5.60;;;;;;;19.58;76.22;99968.75;5059371;28;20631;-79
2022/08/17 04:52:11;;;;;;;6.67;6.17;;;;;;;19.57;76.75;99960.88;5058656;28;20249;-79
2022/08/17 04:54:38;;;;;;;6.47;5.93;;;;;;;19.60;76.75;99944.78;5059747;28;20212;-79
2022/08/17 04:57:04;;;;;;;6.30;5.90;;;;;;;19.65;76.12;99966.53;5058417;28;20259;-79
2022/08/17 04:59:32;;;;;;;6.07;5.67;;;;;;;19.67;76.58;99972.59;5059457;28;20210;-79
2022/08/17 05:01:59;;;;;;;6.63;6.17;;;;;;;19.68;76.72;99974.25;5059000;28;20252;-79
2022/08/17 05:04:27;;;;;;;6.20;5.80;;;;;;;19.74;76.20;99984.53;5059395;28;20229;-79
2022/08/17 05:06:54;;;;;;;6.60;6.00;;;;;;;19.75;76.96;99982.72;5058688;28;20209;-79
2022/08/17 05:09:21;;;;;;;6.07;5.67;;;;;;;19.76;77.53;99960.56;5059052;28;20209;-78
2022/08/17 05:11:48;;;;;;;5.87;5.47;;;;;;;19.82;77.20;99973.41;5059132;28;20216;-79
2022/08/17 05:14:14;;;;;;;5.80;5.40;;;;;;;19.86;77.06;99980.22;5059217;28;20228;-79
2022/08/17 05:16:44;;;;;;;5.80;5.40;;;;;;;19.92;76.82;99993.06;5057899;28;20206;-79
2022/08/17 05:19:11;;;;;;;7.13;6.50;;;;;;;19.87;73.83;100081.72;5058033;28;20297;-79
2022/08/17 05:21:37;;;;;;;8.43;7.37;;;;;;;20.00;73.89;100106.50;5058402;28;20205;-78
2022/08/17 05:24:04;;;;;;;7.30;6.60;;;;;;;20.07;73.46;100117.56;5057324;28;20226;-79
2022/08/17 05:26:30;;;;;;;7.10;6.70;;;;;;;20.18;74.20;100113.28;5057390;28;20401;-79
2022/08/17 05:28:58;;;;;;;6.53;6.13;;;;;;;20.28;73.50;100121.47;5056586;28;20258;-78
2022/08/17 05:31:25;;;;;;;5.97;5.67;;;;;;;20.32;74.18;100095.63;5056694;28;20236;-79
2022/08/17 05:33:53;;;;;;;6.30;5.80;;;;;;;20.38;73.64;100106.69;5057105;28;20229;-79
2022/08/17 05:36:19;;;;;;;5.80;5.37;;;;;;;20.38;74.08;100106.69;5057271;28;20213;-79
2022/08/17 05:38:46;;;;;;;6.33;5.90;;;;;;;20.47;73.67;100122.94;5057351;28;20639;-79
2022/08/17 05:41:12;;;;;;;5.90;5.60;;;;;;;20.54;73.86;100117.13;5056720;28;20672;-79
2022/08/17 05:43:41;;;;;;;6.67;6.27;;;;;;;20.62;73.21;100132.56;5057438;28;20233;-79
2022/08/17 05:46:14;;;;;;;6.47;5.90;;;;;;;20.67;73.82;100126.94;5056959;28;20212;-79
2022/08/17 05:48:44;;;;;;;6.40;6.00;;;;;;;20.66;74.98;100085.47;5056742;28;20225;-79
2022/08/17 05:51:33;;;;;;;6.67;6.07;;;;;;;20.67;75.26;100071.25;5057283;28;20205;-79
2022/08/17 05:54:20;;;;;;;8.23;7.70;;;;;;;20.68;75.87;100044.63;5050061;28;20229;-79
2022/08/17 05:56:59;;;;;;;7.83;7.23;;;;;;;20.72;75.20;100053.25;5056850;28;20251;-79
2022/08/17 05:59:37;;;;;;;8.77;8.17;;;;;;;20.77;74.99;100080.28;5057097;28;20219;-77
2022/08/17 06:02:15;;;;;;;9.20;8.60;;;;;;;20.76;75.77;100055.56;5056497;28;20220;-79
2022/08/17 06:04:58;;;;;;;9.30;8.60;;;;;;;20.73;76.11;100046.97;5056708;28;20675;-78
2022/08/17 06:07:31;;;;;;;8.50;8.00;;;;;;;20.81;76.64;100018.13;5055620;28;20209;-79
2022/08/17 06:10:05;;;;;;;8.90;8.23;;;;;;;20.86;76.03;100028.44;5056914;28;20246;-79
2022/08/17 06:12:42;;;;;;;8.73;8.23;;;;;;;20.94;75.49;100053.47;5057580;28;20278;-79
2022/08/17 06:15:23;;;;;;;9.00;8.40;;;;;;;21.06;74.80;100080.13;5057723;28;20200;-79
2022/08/17 06:17:52;;;;;;;9.30;8.70;;;;;;;21.15;74.57;100090.97;5057730;28;20205;-78
2022/08/17 06:20:18;;;;;;;9.60;8.93;;;;;;;21.24;74.78;100097.44;5055399;28;20202;-78
2022/08/17 06:22:50;;;;;;;8.97;8.33;;;;;;;21.24;74.51;100097.44;5055521;28;20226;-78
2022/08/17 06:25:19;;;;;;;10.00;9.10;;;;;;;21.30;73.93;100120.06;5051318;28;20253;-81
2022/08/17 06:27:49;;;;;;;8.53;7.83;;;;;;;21.33;73.93;100119.88;5037425;28;20268;-80
2022/08/17 06:30:20;;;;;;;8.80;8.10;;;;;;;21.37;75.04;100095.63;5036510;28;20557;-78
2022/08/17 06:32:49;;;;;;;9.90;9.10;;;;;;;21.30;75.99;100054.53;5034011;28;20728;-79
2022/08/17 06:35:24;;;;;;;9.70;8.90;;;;;;;21.35;76.55;100038.31;5034146;28;20210;-78
2022/08/17 06:38:03;;;;;;;8.77;8.27;;;;;;;21.46;76.30;100038.41;5034471;28;20252;-78
2022/08/17 06:40:44;;;;;;;8.63;8.13;;;;;;;21.58;75.13;100068.56;5034863;28;20269;-78
2022/08/17 06:43:20;;;;;;;8.67;8.07;;;;;;;21.65;75.54;100075.16;5035396;28;20252;-77
2022/08/17 06:45:53;;;;;;;9.40;8.80;;;;;;;21.73;74.80;100087.88;5039571;28;20265;-77
2022/08/17 06:48:25;;;;;;;8.63;7.97;;;;;;;21.83;74.08;100119.97;5039870;28;20217;-77
2022/08/17 06:50:58;;;;;;;9.30;8.70;;;;;;;21.89;73.99;100127.50;5049788;28;20197;-78
2022/08/17 06:53:32;;;;;;;11.23;8.67;;;;;;;21.97;74.39;100110.03;5055169;28;20224;-77
2022/08/17 06:56:04;;;;;;;8.63;7.97;;;;;;;22.07;74.39;100106.72;5045021;28;20223;-78
2022/08/17 06:58:32;;;;;;;8.77;8.17;;;;;;;22.14;74.30;100113.28;5044763;28;20204;-78
2022/08/17 07:01:05;;;;;;;8.50;7.70;;;;;;;22.23;74.32;100111.78;5043657;28;20270;-78
2022/08/17 07:03:36;;;;;;;8.53;7.67;;;;;;;22.31;73.97;100131.53;5042625;28;20287;-78
2022/08/17 07:06:08;;;;;;;10.07;7.50;;;;;;;22.40;74.34;100114.09;5044372;28;20201;-78
2022/08/17 07:08:46;;;;;;;8.47;7.70;;;;;;;22.54;74.15;100116.56;5044760;28;20535;-78
2022/08/17 07:11:17;;;;;;;8.50;7.97;;;;;;;22.66;72.82;100148.56;5044788;28;20205;-78
2022/08/17 07:13:50;;;;;;;9.33;8.20;;;;;;;22.63;71.27;100202.81;5043351;28;20743;-78
2022/08/17 07:16:21;;;;;;;9.17;8.57;;;;;;;22.69;71.76;100207.69;5045033;28;20198;-78
2022/08/17 07:18:50;;;;;;;9.13;8.47;;;;;;;22.75;71.64;100209.91;5044488;28;20205;-78
2022/08/17 07:21:29;;;;;;;10.37;9.50;;;;;;;22.74;71.05;100232.16;5047999;28;20194;-78
2022/08/17 07:24:13;;;;;;;9.63;8.97;;;;;;;22.71;70.85;100236.84;5045109;28;20229;-78
2022/08/17 07:26:39;;;;;;;9.70;9.00;;;;;;;22.73;71.29;100251.72;5044180;28;20197;-78
2022/08/17 07:29:07;;;;;;;10.43;9.63;;;;;;;22.57;72.58;100187.31;5043687;28;20670;-78
2022/08/17 07:31:33;;;;;;;11.00;9.73;;;;;;;22.49;73.01;100171.06;5042065;28;20204;-78
2022/08/17 07:34:06;;;;;;;10.80;9.77;;;;;;;22.57;72.33;100185.50;5044276;28;20217;-78
2022/08/17 07:36:33;;;;;;;11.27;10.43;;;;;;;22.70;72.98;100165.97;5043519;28;20790;-78
2022/08/17 07:39:03;;;;;;;11.73;11.03;;;;;;;22.65;73.11;100160.13;5041080;28;20227;-77
2022/08/17 07:41:38;;;;;;;11.30;10.40;;;;;;;22.70;73.21;100158.00;5040589;28;20213;-79
2022/08/17 07:44:11;;;;;;;10.93;10.23;;;;;;;22.72;71.33;100210.13;5042630;28;20232;-77
2022/08/17 07:49:37;;;;;;;11.33;10.53;;;;;;;22.89;70.85;100234.66;5047870;28;20773;-78
2022/08/17 07:52:07;;;;;;;11.27;10.57;;;;;;;22.95;70.50;100245.72;5047658;28;20194;-78
2022/08/17 07:54:37;;;;;;;11.80;10.90;;;;;;;22.97;70.80;100238.47;5044607;28;20660;-77
2022/08/17 07:57:28;;;;;;;10.97;9.90;;;;;;;23.13;70.61;100243.53;5044320;28;20198;-77
2022/08/17 08:00:20;;;;;;;9.53;8.73;;;;;;;23.24;68.96;100311.13;5046107;28;20198;-79
2022/08/17 08:03:00;;;;;;;7.53;6.93;;;;;;;23.34;66.79;100360.91;5045002;28;20233;-78
2022/08/17 08:05:29;;;;;;;7.20;6.80;;;;;;;23.38;66.03;100421.00;5045422;28;20201;-79
2022/08/17 08:07:58;;;;;;;8.37;7.67;;;;;;;23.47;66.12;100422.16;5046270;28;20197;-79
2022/08/17 08:10:31;;;;;;;8.33;7.63;;;;;;;23.52;67.02;100373.84;5047412;28;20202;-79
2022/08/17 08:13:08;;;;;;;13.33;8.90;;;;;;;23.56;67.22;100372.66;5049323;28;20248;-78
2022/08/17 08:15:38;;;;;;;11.10;8.50;;;;;;;23.60;65.75;100398.94;5049538;28;20660;-79
2022/08/17 08:18:22;;;;;;;8.37;7.67;;;;;;;23.65;65.17;100425.28;5048759;28;20208;-79
2022/08/17 08:20:52;;;;;;;8.80;8.00;;;;;;;23.73;64.93;100444.22;5053287;28;20205;-79
2022/08/17 08:23:31;;;;;;;8.30;7.30;;;;;;;23.83;64.55;100448.91;5048404;28;20285;-78
2022/08/17 08:26:14;;;;;;;7.67;6.93;;;;;;;23.97;65.76;100440.72;5048425;28;20571;-78
2022/08/17 08:28:48;;;;;;;9.00;7.20;;;;;;;24.04;67.12;100348.59;5049488;28;20201;-79
2022/08/17 08:31:24;;;;;;;8.43;7.73;;;;;;;24.18;67.42;100352.84;5050439;28;20196;-78
2022/08/17 08:34:03;;;;;;;8.47;7.63;;;;;;;24.29;68.27;100312.88;5050875;28;20896;-79
2022/08/17 08:36:45;;;;;;;8.67;7.60;;;;;;;24.45;69.60;100264.47;5049440;28;20205;-79
2022/08/17 08:39:20;;;;;;;7.90;7.33;;;;;;;24.61;67.54;100306.00;5051346;28;20198;-79
2022/08/17 08:42:00;;;;;;;8.07;7.37;;;;;;;24.78;66.79;100337.53;5049837;28;20219;-79
2022/08/17 08:44:36;;;;;;;7.37;6.77;;;;;;;24.91;66.58;100375.59;5050693;28;20236;-79
2022/08/17 08:47:13;;;;;;;7.73;6.67;;;;;;;25.09;65.09;100417.81;5050149;28;20207;-79
2022/08/17 08:49:59;;;;;;;6.33;5.83;;;;;;;25.21;64.29;100451.56;5054086;28;20678;-78
2022/08/17 08:52:45;;;;;;;8.27;6.87;;;;;;;25.31;63.86;100465.94;5052189;28;20226;-78
2022/08/17 08:55:20;;;;;;;6.97;6.47;;;;;;;25.41;62.64;100490.09;5050788;28;20690;-78
2022/08/17 08:57:54;;;;;;;6.57;6.17;;;;;;;25.50;63.18;100475.13;5048497;28;20270;-79
2022/08/17 09:00:23;;;;;;;6.43;5.93;;;;;;;25.55;62.56;100492.50;5051297;28;20253;-79
2022/08/17 09:03:18;;;;;;;6.40;5.93;;;;;;;25.61;62.43;100507.19;5050057;28;20299;-78
2022/08/17 09:06:07;;;;;;;6.83;6.13;;;;;;;25.66;62.66;100501.47;5051469;28;20204;-79
2022/08/17 09:08:49;;;;;;;6.57;5.97;;;;;;;25.69;61.93;100514.59;5061213;28;20208;-79
2022/08/17 09:11:23;;;;;;;6.77;5.90;;;;;;;25.76;60.53;100558.56;5060199;28;20209;-79
2022/08/17 09:14:04;;;;;;;6.83;6.27;;;;;;;25.77;60.24;100576.31;5060319;28;20221;-79
2022/08/17 09:16:36;;;;;;;6.87;5.83;;;;;;;25.82;59.05;100622.25;5059898;28;20209;-78
2022/08/17 09:19:11;;;;;;;6.13;5.73;;;;;;;25.94;58.90;100637.34;5060787;28;20206;-79
2022/08/17 09:21:44;;;;;;;6.67;6.20;;;;;;;26.00;59.08;100619.94;5059181;28;20258;-78
2022/08/17 09:24:18;;;;;;;15.07;6.73;;;;;;;26.04;57.55;100666.03;4352907;28;10000804;-79
2022/08/17 09:26:53;;;;;;;6.10;5.50;;;;;;;26.13;55.10;100702.75;5036709;28;20267;-79
2022/08/17 09:29:24;;;;;;;4.87;4.57;;;;;;;26.15;54.05;100701.66;5036542;28;20209;-79
2022/08/17 09:31:55;;;;;;;4.70;4.07;;;;;;;26.26;53.42;100809.66;5033182;28;20213;-79
2022/08/17 09:34:34;;;;;;;4.63;4.13;;;;;;;26.34;54.29;100796.53;5040199;28;20230;-77
2022/08/17 09:37:13;;;;;;;4.10;3.80;;;;;;;26.45;51.61;100814.41;5034990;28;20288;-77
2022/08/17 09:39:52;;;;;;;3.77;3.57;;;;;;;26.48;49.17;100934.63;5031590;28;20210;-77
2022/08/17 09:42:26;;;;;;;4.00;3.70;;;;;;;26.51;48.66;100967.38;5030855;28;20263;-77
2022/08/17 09:45:03;;;;;;;3.60;3.40;;;;;;;26.58;49.23;100969.59;5037185;28;20291;-80
2022/08/17 09:47:35;;;;;;;4.33;4.03;;;;;;;26.68;51.54;100869.69;5034442;28;20220;-80
2022/08/17 09:50:10;;;;;;;4.30;3.57;;;;;;;26.77;51.48;100851.19;5050859;28;20233;-80
2022/08/17 09:52:37;;;;;;;4.60;4.30;;;;;;;26.84;49.24;100908.63;5056802;28;20220;-80
2022/08/17 09:55:05;;;;;;;4.47;4.10;;;;;;;26.85;48.84;100955.88;5056500;28;20201;-81
2022/08/17 09:57:46;;;;;;;5.93;3.80;;;;;;;26.89;48.41;100941.25;5055825;28;20209;-80
2022/08/17 10:00:22;;;;;;;4.20;4.00;;;;;;;26.97;49.80;100893.28;5056370;28;20255;-81
2022/08/17 10:03:01;;;;;;;3.77;3.57;;;;;;;27.11;48.90;100860.84;5057367;28;20225;-80
2022/08/17 10:05:36;;;;;;;5.60;5.10;;;;;;;27.24;47.86;100918.84;5056311;28;20642;-81
2022/08/17 10:08:13;;;;;;;4.03;3.73;;;;;;;27.30;47.86;100929.91;5056145;28;20961;-81
2022/08/17 10:10:51;;;;;;;4.17;3.70;;;;;;;27.39;49.25;100876.50;5055890;28;20212;-81
2022/08/17 10:13:34;;;;;;;4.03;3.70;;;;;;;27.50;46.72;100941.69;5055139;28;20229;-80
2022/08/17 10:16:12;;;;;;;4.23;3.93;;;;;;;27.58;46.00;100956.28;5055950;28;20679;-81
2022/08/17 10:18:46;;;;;;;3.77;3.57;;;;;;;27.71;47.22;100948.91;5055477;28;20745;-81
2022/08/17 10:26:54;;;;;;;4.07;3.83;;;;;;;28.21;44.61;101010.97;5056612;28;20344;-80
2022/08/17 10:29:26;;;;;;;3.80;3.47;;;;;;;28.26;43.76;101034.72;5056051;28;20634;-81
2022/08/17 10:32:00;;;;;;;3.80;3.60;;;;;;;28.28;42.60;101091.84;5054761;28;20206;-81
2022/08/17 10:35:07;;;;;;;3.77;3.47;;;;;;;28.32;44.08;101067.31;5055458;28;20244;-81
2022/08/17 10:37:46;;;;;;;4.00;3.70;;;;;;;28.45;43.78;101010.69;5045049;28;20205;-80
2022/08/17 10:40:26;;;;;;;6.83;4.27;;;;;;;28.54;45.72;100984.06;5055831;28;20688;-81
2022/08/17 10:42:59;;;;;;;4.60;4.23;;;;;;;28.68;44.84;100954.16;5055210;28;20233;-81
2022/08/17 10:45:28;;;;;;;4.67;4.27;;;;;;;28.71;44.16;100984.31;5055702;28;20202;-81
2022/08/17 10:48:02;;;;;;;4.13;3.90;;;;;;;28.75;43.03;101006.38;5056216;28;20213;-81
2022/08/17 10:50:48;;;;;;;3.80;3.60;;;;;;;28.80;43.40;100985.34;5055832;28;20209;-81
2022/08/17 10:53:51;;;;;;;4.40;4.10;;;;;;;28.87;45.62;100958.78;5054979;28;21018;-81
2022/08/17 10:56:20;;;;;;;4.63;4.33;;;;;;;28.94;43.23;100969.84;5055973;28;20338;-81
2022/08/17 10:58:49;;;;;;;4.20;3.90;;;;;;;28.90;41.82;101048.06;5054965;28;20240;-79
2022/08/17 11:01:16;;;;;;;4.13;3.83;;;;;;;28.96;43.34;101024.31;5056363;28;20213;-81
2022/08/17 11:03:53;;;;;;;4.00;3.80;;;;;;;29.11;43.27;100990.69;5055798;28;20315;-81
2022/08/17 11:06:31;;;;;;;4.50;4.20;;;;;;;29.22;42.72;100987.09;5055703;28;20213;-81
2022/08/17 11:09:27;;;;;;;4.00;3.70;;;;;;;29.36;41.02;101085.38;5055508;28;20212;-80
2022/08/17 11:12:23;;;;;;;4.20;3.87;;;;;;;29.46;40.34;101043.22;5053414;28;20205;-80
2022/08/17 11:15:07;;;;;;;4.67;4.27;;;;;;;29.62;40.83;101108.13;5055392;28;20205;-80
2022/08/17 11:17:49;;;;;;;4.00;3.70;;;;;;;29.78;40.17;101075.34;5055677;28;20283;-81
2022/08/17 11:20:44;;;;;;;4.03;3.73;;;;;;;29.88;42.20;101054.66;5055034;28;20956;-81
2022/08/17 11:23:41;;;;;;;3.73;3.50;;;;;;;29.82;37.93;101172.81;5034763;28;20271;-81
2022/08/17 11:26:24;;;;;;;4.43;4.07;;;;;;;30.11;39.79;101156.75;5034590;28;20214;-81
2022/08/17 11:28:58;;;;;;;4.33;4.03;;;;;;;30.25;38.88;101153.63;5034413;28;20751;-78
2022/08/17 11:31:30;;;;;;;4.30;4.00;;;;;;;30.25;38.75;101128.56;5035255;28;20228;-81
2022/08/17 11:34:02;;;;;;;4.87;4.57;;;;;;;30.37;40.66;101083.50;5036763;28;20282;-80
2022/08/17 11:37:03;;;;;;;4.30;4.10;;;;;;;30.59;39.09;101050.00;5035789;28;20220;-80
2022/08/17 11:39:44;;;;;;;4.67;4.30;;;;;;;31.15;38.38;101110.34;5036859;28;20256;-79
2022/08/17 11:42:27;;;;;;;4.10;3.80;;;;;;;31.72;37.45;101145.38;5035804;28;20209;-80
2022/08/17 11:44:57;;;;;;;4.53;4.27;;;;;;;32.58;37.16;101102.56;5039786;28;20230;-80
2022/08/17 11:54:08;;;;;;;5.07;4.13;;;;;;;33.87;30.50;101399.75;5038422;28;20225;-79
2022/08/17 11:56:48;;;;;;;4.00;3.70;;;;;;;34.48;32.59;101342.88;5038038;28;20241;-78
2022/08/17 12:00:09;;;;;;;4.53;4.27;;;;;;;34.75;33.10;101284.84;5036572;28;20210;-80
2022/08/17 12:02:43;;;;;;;4.50;4.20;;;;;;;34.54;33.22;101291.53;5037799;28;20226;-78
2022/08/17 12:05:27;;;;;;;4.37;3.97;;;;;;;34.49;34.17;101236.09;5037542;28;20228;-78
2022/08/17 12:08:07;;;;;;;4.20;4.00;;;;;;;34.91;33.68;101219.72;5037741;28;20236;-80
2022/08/17 12:10:36;;;;;;;4.90;4.57;;;;;;;34.69;33.37;101277.34;5037502;28;20244;-79
2022/08/17 12:13:10;;;;;;;4.33;4.13;;;;;;;34.44;34.89;101214.91;5037433;28;20818;-77
2022/08/17 12:15:48;;;;;;;4.43;4.10;;;;;;;33.78;33.89;101149.66;5040076;28;20202;-79